sensor_id;sensor_type;location;lat;lon;timestamp;temperature;humidity
53152;DHT22;39234;53.158;6.322;2023-06-19T00:02:21;20.40;99.90
53152;DHT22;39234;53.158;6.322;2023-06-19T00:04:46;20.40;99.90
53152;DHT22;39234;53.158;6.322;2023-06-19T00:07:12;20.50;99.90
53152;DHT22;39234;53.158;6.322;2023-06-19T00:09:38;20.30;99.90
53152;DHT22;39234;53.158;6.322;2023-06-19T00:12:04;20.40;99.90
53152;DHT22;39234;53.158;6.322;2023-06-19T00:14:30;20.40;99.90
53152;DHT22;39234;53.158;6.322;2023-06-19T00:16:56;20.50;99.90
53152;DHT22;39234;53.158;6.322;2023-06-19T00:19:22;20.40;99.90
53152;DHT22;39234;53.158;6.322;2023-06-19T00:21:48;20.50;99.90
53152;DHT22;39234;53.158;6.322;2023-06-19T00:24:13;20.30;99.90
53152;DHT22;39234;53.158;6.322;2023-06-19T00:26:39;20.30;99.90
53152;DHT22;39234;53.158;6.322;2023-06-19T00:29:05;20.40;99.90
53152;DHT22;39234;53.158;6.322;2023-06-19T00:31:32;20.40;99.90
53152;DHT22;39234;53.158;6.322;2023-06-19T00:33:58;20.40;99.90
53152;DHT22;39234;53.158;6.322;2023-06-19T00:36:24;20.40;99.90
53152;DHT22;39234;53.158;6.322;2023-06-19T00:38:51;20.30;99.90
53152;DHT22;39234;53.158;6.322;2023-06-19T00:41:17;20.50;99.90
53152;DHT22;39234;53.158;6.322;2023-06-19T00:43:44;20.40;99.90
53152;DHT22;39234;53.158;6.322;2023-06-19T00:46:10;20.50;99.90
53152;DHT22;39234;53.158;6.322;2023-06-19T00:48:36;20.50;99.90
53152;DHT22;39234;53.158;6.322;2023-06-19T00:51:03;20.40;99.90
53152;DHT22;39234;53.158;6.322;2023-06-19T00:53:30;20.40;99.90
53152;DHT22;39234;53.158;6.322;2023-06-19T00:55:57;20.30;99.90
53152;DHT22;39234;53.158;6.322;2023-06-19T00:58:24;20.40;99.90
53152;DHT22;39234;53.158;6.322;2023-06-19T01:00:50;20.30;99.90
53152;DHT22;39234;53.158;6.322;2023-06-19T01:03:16;20.20;99.90
53152;DHT22;39234;53.158;6.322;2023-06-19T01:05:43;20.50;99.90
53152;DHT22;39234;53.158;6.322;2023-06-19T01:10:55;20.40;99.90
53152;DHT22;39234;53.158;6.322;2023-06-19T01:15:53;20.30;99.90
53152;DHT22;39234;53.158;6.322;2023-06-19T01:18:20;20.40;99.90
53152;DHT22;39234;53.158;6.322;2023-06-19T01:20:48;20.30;99.90
53152;DHT22;39234;53.158;6.322;2023-06-19T01:23:14;20.40;99.90
53152;DHT22;39234;53.158;6.322;2023-06-19T01:25:40;20.40;99.90
53152;DHT22;39234;53.158;6.322;2023-06-19T01:28:08;20.50;99.90
53152;DHT22;39234;53.158;6.322;2023-06-19T01:30:37;20.10;99.90
53152;DHT22;39234;53.158;6.322;2023-06-19T01:33:15;20.50;99.90
53152;DHT22;39234;53.158;6.322;2023-06-19T01:35:46;20.30;99.90
53152;DHT22;39234;53.158;6.322;2023-06-19T01:38:13;20.40;99.90
53152;DHT22;39234;53.158;6.322;2023-06-19T01:40:40;20.20;99.90
53152;DHT22;39234;53.158;6.322;2023-06-19T01:43:07;20.30;99.90
53152;DHT22;39234;53.158;6.322;2023-06-19T01:45:33;20.30;99.90
53152;DHT22;39234;53.158;6.322;2023-06-19T01:47:59;20.20;99.90
53152;DHT22;39234;53.158;6.322;2023-06-19T01:50:25;18.20;99.90
53152;DHT22;39234;53.158;6.322;2023-06-19T01:52:52;20.30;99.90
53152;DHT22;39234;53.158;6.322;2023-06-19T01:55:18;20.50;99.90
53152;DHT22;39234;53.158;6.322;2023-06-19T01:57:44;20.30;99.90
53152;DHT22;39234;53.158;6.322;2023-06-19T02:00:11;20.10;99.90
53152;DHT22;39234;53.158;6.322;2023-06-19T02:02:37;20.30;99.90
53152;DHT22;39234;53.158;6.322;2023-06-19T02:05:03;20.40;99.90
53152;DHT22;39234;53.158;6.322;2023-06-19T02:07:30;20.40;99.90
53152;DHT22;39234;53.158;6.322;2023-06-19T02:09:56;20.40;99.90
53152;DHT22;39234;53.158;6.322;2023-06-19T02:12:22;20.20;99.90
53152;DHT22;39234;53.158;6.322;2023-06-19T02:14:48;20.40;99.90
53152;DHT22;39234;53.158;6.322;2023-06-19T02:17:14;20.30;99.90
53152;DHT22;39234;53.158;6.322;2023-06-19T02:19:40;20.50;99.90
53152;DHT22;39234;53.158;6.322;2023-06-19T02:22:06;20.40;99.90
53152;DHT22;39234;53.158;6.322;2023-06-19T02:24:32;20.40;99.90
53152;DHT22;39234;53.158;6.322;2023-06-19T02:26:58;20.20;99.90
53152;DHT22;39234;53.158;6.322;2023-06-19T02:29:24;20.30;99.90
53152;DHT22;39234;53.158;6.322;2023-06-19T02:31:50;20.20;99.90
53152;DHT22;39234;53.158;6.322;2023-06-19T02:34:16;20.40;99.90
53152;DHT22;39234;53.158;6.322;2023-06-19T02:36:42;20.40;99.90
53152;DHT22;39234;53.158;6.322;2023-06-19T02:39:08;20.10;99.90
53152;DHT22;39234;53.158;6.322;2023-06-19T02:41:34;20.30;99.90
53152;DHT22;39234;53.158;6.322;2023-06-19T02:44:00;20.30;99.90
53152;DHT22;39234;53.158;6.322;2023-06-19T02:46:26;20.30;99.90
53152;DHT22;39234;53.158;6.322;2023-06-19T02:48:52;20.30;99.90
53152;DHT22;39234;53.158;6.322;2023-06-19T02:51:17;20.20;99.90
53152;DHT22;39234;53.158;6.322;2023-06-19T02:53:43;20.20;99.90
53152;DHT22;39234;53.158;6.322;2023-06-19T02:56:11;20.30;99.90
53152;DHT22;39234;53.158;6.322;2023-06-19T02:58:37;20.20;99.90
53152;DHT22;39234;53.158;6.322;2023-06-19T03:01:03;20.10;99.90
53152;DHT22;39234;53.158;6.322;2023-06-19T03:03:32;20.30;99.90
53152;DHT22;39234;53.158;6.322;2023-06-19T03:06:06;20.10;99.90
53152;DHT22;39234;53.158;6.322;2023-06-19T03:08:36;20.20;99.90
53152;DHT22;39234;53.158;6.322;2023-06-19T03:11:02;20.10;99.90
53152;DHT22;39234;53.158;6.322;2023-06-19T03:13:52;20.20;99.90
53152;DHT22;39234;53.158;6.322;2023-06-19T03:16:18;20.30;99.90
53152;DHT22;39234;53.158;6.322;2023-06-19T03:18:45;20.20;99.90
53152;DHT22;39234;53.158;6.322;2023-06-19T03:21:14;19.90;99.90
53152;DHT22;39234;53.158;6.322;2023-06-19T03:23:40;19.80;99.90
53152;DHT22;39234;53.158;6.322;2023-06-19T03:26:09;19.90;99.90
53152;DHT22;39234;53.158;6.322;2023-06-19T03:28:38;19.80;99.90
53152;DHT22;39234;53.158;6.322;2023-06-19T03:31:04;19.80;99.90
53152;DHT22;39234;53.158;6.322;2023-06-19T03:33:29;19.60;99.90
53152;DHT22;39234;53.158;6.322;2023-06-19T03:35:55;19.60;99.90
53152;DHT22;39234;53.158;6.322;2023-06-19T03:38:21;19.60;99.90
53152;DHT22;39234;53.158;6.322;2023-06-19T03:40:47;19.50;99.90
53152;DHT22;39234;53.158;6.322;2023-06-19T03:43:12;19.60;99.90
53152;DHT22;39234;53.158;6.322;2023-06-19T03:45:38;19.50;99.90
53152;DHT22;39234;53.158;6.322;2023-06-19T03:48:04;19.50;99.90
53152;DHT22;39234;53.158;6.322;2023-06-19T03:50:30;19.50;99.90
53152;DHT22;39234;53.158;6.322;2023-06-19T03:52:56;19.50;99.90
53152;DHT22;39234;53.158;6.322;2023-06-19T03:55:21;19.60;99.90
53152;DHT22;39234;53.158;6.322;2023-06-19T03:57:47;19.50;99.90
53152;DHT22;39234;53.158;6.322;2023-06-19T04:00:14;17.60;99.90
53152;DHT22;39234;53.158;6.322;2023-06-19T04:02:40;19.20;99.90
53152;DHT22;39234;53.158;6.322;2023-06-19T04:05:07;19.50;99.90
53152;DHT22;39234;53.158;6.322;2023-06-19T04:07:32;19.60;99.90
53152;DHT22;39234;53.158;6.322;2023-06-19T04:09:59;19.40;99.90
53152;DHT22;39234;53.158;6.322;2023-06-19T04:12:24;19.80;99.90
53152;DHT22;39234;53.158;6.322;2023-06-19T04:14:50;19.80;99.90
53152;DHT22;39234;53.158;6.322;2023-06-19T04:17:16;19.60;99.90
53152;DHT22;39234;53.158;6.322;2023-06-19T04:19:43;19.80;99.90
53152;DHT22;39234;53.158;6.322;2023-06-19T04:22:08;19.60;99.90
53152;DHT22;39234;53.158;6.322;2023-06-19T04:24:35;19.70;99.90
53152;DHT22;39234;53.158;6.322;2023-06-19T04:27:00;19.90;99.90
53152;DHT22;39234;53.158;6.322;2023-06-19T04:29:26;19.90;99.90
53152;DHT22;39234;53.158;6.322;2023-06-19T04:32:00;20.00;99.90
53152;DHT22;39234;53.158;6.322;2023-06-19T04:34:26;19.70;99.90
53152;DHT22;39234;53.158;6.322;2023-06-19T04:36:51;19.80;99.90
53152;DHT22;39234;53.158;6.322;2023-06-19T04:39:17;19.80;99.90
53152;DHT22;39234;53.158;6.322;2023-06-19T04:41:44;19.90;99.90
53152;DHT22;39234;53.158;6.322;2023-06-19T04:44:10;19.90;99.90
53152;DHT22;39234;53.158;6.322;2023-06-19T04:46:37;19.80;99.90
53152;DHT22;39234;53.158;6.322;2023-06-19T04:49:04;20.00;99.90
53152;DHT22;39234;53.158;6.322;2023-06-19T04:51:32;19.90;99.90
53152;DHT22;39234;53.158;6.322;2023-06-19T04:53:59;19.80;99.90
53152;DHT22;39234;53.158;6.322;2023-06-19T04:56:25;20.10;99.90
53152;DHT22;39234;53.158;6.322;2023-06-19T04:58:51;19.90;99.90
53152;DHT22;39234;53.158;6.322;2023-06-19T05:01:17;20.00;99.90
53152;DHT22;39234;53.158;6.322;2023-06-19T05:03:45;19.90;99.90
53152;DHT22;39234;53.158;6.322;2023-06-19T05:06:13;20.10;99.90
53152;DHT22;39234;53.158;6.322;2023-06-19T05:08:39;20.10;99.90
53152;DHT22;39234;53.158;6.322;2023-06-19T05:11:05;20.00;99.90
53152;DHT22;39234;53.158;6.322;2023-06-19T05:13:30;20.10;99.90
53152;DHT22;39234;53.158;6.322;2023-06-19T05:15:56;20.10;99.90
53152;DHT22;39234;53.158;6.322;2023-06-19T05:18:22;20.10;99.90
53152;DHT22;39234;53.158;6.322;2023-06-19T05:20:48;20.30;99.90
53152;DHT22;39234;53.158;6.322;2023-06-19T05:23:13;20.30;99.90
53152;DHT22;39234;53.158;6.322;2023-06-19T05:25:39;20.20;99.90
53152;DHT22;39234;53.158;6.322;2023-06-19T05:28:05;20.50;99.90
53152;DHT22;39234;53.158;6.322;2023-06-19T05:30:31;20.30;99.90
53152;DHT22;39234;53.158;6.322;2023-06-19T05:32:56;20.50;99.90
53152;DHT22;39234;53.158;6.322;2023-06-19T05:35:22;20.30;99.90
53152;DHT22;39234;53.158;6.322;2023-06-19T05:37:48;20.20;99.90
53152;DHT22;39234;53.158;6.322;2023-06-19T05:40:14;20.30;99.90
53152;DHT22;39234;53.158;6.322;2023-06-19T05:42:40;20.30;99.90
53152;DHT22;39234;53.158;6.322;2023-06-19T05:45:07;20.20;99.90
53152;DHT22;39234;53.158;6.322;2023-06-19T05:47:33;20.30;99.90
53152;DHT22;39234;53.158;6.322;2023-06-19T05:49:59;20.20;99.90
53152;DHT22;39234;53.158;6.322;2023-06-19T05:52:24;20.30;99.90
53152;DHT22;39234;53.158;6.322;2023-06-19T05:54:51;20.30;99.90
53152;DHT22;39234;53.158;6.322;2023-06-19T05:57:17;20.40;99.90
53152;DHT22;39234;53.158;6.322;2023-06-19T05:59:47;20.20;99.90
53152;DHT22;39234;53.158;6.322;2023-06-19T06:02:13;20.20;99.90
53152;DHT22;39234;53.158;6.322;2023-06-19T06:04:39;20.20;99.90
53152;DHT22;39234;53.158;6.322;2023-06-19T06:07:05;20.20;99.90
53152;DHT22;39234;53.158;6.322;2023-06-19T06:09:31;20.30;99.90
53152;DHT22;39234;53.158;6.322;2023-06-19T06:11:58;20.40;99.90
53152;DHT22;39234;53.158;6.322;2023-06-19T06:14:26;19.90;99.90
53152;DHT22;39234;53.158;6.322;2023-06-19T06:16:51;20.30;99.90
53152;DHT22;39234;53.158;6.322;2023-06-19T06:19:18;20.30;99.90
53152;DHT22;39234;53.158;6.322;2023-06-19T06:21:43;20.20;99.90
53152;DHT22;39234;53.158;6.322;2023-06-19T06:24:09;20.20;99.90
53152;DHT22;39234;53.158;6.322;2023-06-19T06:26:35;20.20;99.90
53152;DHT22;39234;53.158;6.322;2023-06-19T06:29:02;20.10;99.90
53152;DHT22;39234;53.158;6.322;2023-06-19T06:31:28;20.20;99.90
53152;DHT22;39234;53.158;6.322;2023-06-19T06:33:53;20.30;99.90
53152;DHT22;39234;53.158;6.322;2023-06-19T06:36:19;20.40;99.90
53152;DHT22;39234;53.158;6.322;2023-06-19T06:38:45;20.20;99.90
53152;DHT22;39234;53.158;6.322;2023-06-19T06:41:11;20.40;99.90
53152;DHT22;39234;53.158;6.322;2023-06-19T06:43:36;20.10;99.90
53152;DHT22;39234;53.158;6.322;2023-06-19T06:46:04;20.20;99.90
53152;DHT22;39234;53.158;6.322;2023-06-19T06:48:30;20.30;99.90
53152;DHT22;39234;53.158;6.322;2023-06-19T06:50:56;20.10;99.90
53152;DHT22;39234;53.158;6.322;2023-06-19T06:53:27;20.00;99.90
53152;DHT22;39234;53.158;6.322;2023-06-19T06:55:54;19.70;99.90
53152;DHT22;39234;53.158;6.322;2023-06-19T06:58:20;19.90;99.90
53152;DHT22;39234;53.158;6.322;2023-06-19T07:00:46;20.00;99.90
53152;DHT22;39234;53.158;6.322;2023-06-19T07:03:13;19.90;99.90
53152;DHT22;39234;53.158;6.322;2023-06-19T07:05:38;19.70;99.90
53152;DHT22;39234;53.158;6.322;2023-06-19T07:08:04;19.80;99.90
53152;DHT22;39234;53.158;6.322;2023-06-19T07:10:30;19.80;99.90
53152;DHT22;39234;53.158;6.322;2023-06-19T07:12:56;19.60;99.90
53152;DHT22;39234;53.158;6.322;2023-06-19T07:15:22;19.70;99.90
53152;DHT22;39234;53.158;6.322;2023-06-19T07:17:48;19.40;99.90
53152;DHT22;39234;53.158;6.322;2023-06-19T07:20:14;19.40;99.90
53152;DHT22;39234;53.158;6.322;2023-06-19T07:22:41;19.30;99.90
53152;DHT22;39234;53.158;6.322;2023-06-19T07:25:07;19.40;99.90
53152;DHT22;39234;53.158;6.322;2023-06-19T07:27:33;19.60;99.90
53152;DHT22;39234;53.158;6.322;2023-06-19T07:29:59;19.60;99.90
53152;DHT22;39234;53.158;6.322;2023-06-19T07:32:25;19.50;99.90
53152;DHT22;39234;53.158;6.322;2023-06-19T07:34:50;19.50;99.90
53152;DHT22;39234;53.158;6.322;2023-06-19T07:37:16;19.70;99.90
53152;DHT22;39234;53.158;6.322;2023-06-19T07:39:47;19.70;99.90
53152;DHT22;39234;53.158;6.322;2023-06-19T07:42:14;19.70;99.90
53152;DHT22;39234;53.158;6.322;2023-06-19T07:44:40;19.50;99.90
53152;DHT22;39234;53.158;6.322;2023-06-19T07:47:06;19.80;99.90
53152;DHT22;39234;53.158;6.322;2023-06-19T07:49:32;19.50;99.90
53152;DHT22;39234;53.158;6.322;2023-06-19T07:51:58;19.50;99.90
53152;DHT22;39234;53.158;6.322;2023-06-19T07:54:24;19.70;99.90
53152;DHT22;39234;53.158;6.322;2023-06-19T07:56:49;19.80;99.90
53152;DHT22;39234;53.158;6.322;2023-06-19T07:59:15;19.70;99.90
53152;DHT22;39234;53.158;6.322;2023-06-19T08:01:42;19.90;99.90
53152;DHT22;39234;53.158;6.322;2023-06-19T08:04:08;19.60;99.90
53152;DHT22;39234;53.158;6.322;2023-06-19T08:06:34;19.80;99.90
53152;DHT22;39234;53.158;6.322;2023-06-19T08:09:00;19.60;99.90
53152;DHT22;39234;53.158;6.322;2023-06-19T08:11:26;19.90;99.90
53152;DHT22;39234;53.158;6.322;2023-06-19T08:13:51;19.60;99.90
53152;DHT22;39234;53.158;6.322;2023-06-19T08:16:17;19.50;99.90
53152;DHT22;39234;53.158;6.322;2023-06-19T08:18:44;19.60;99.90
53152;DHT22;39234;53.158;6.322;2023-06-19T08:21:11;19.60;99.90
53152;DHT22;39234;53.158;6.322;2023-06-19T08:23:37;19.70;99.90
53152;DHT22;39234;53.158;6.322;2023-06-19T08:26:09;19.40;99.90
53152;DHT22;39234;53.158;6.322;2023-06-19T08:28:34;19.60;99.90
53152;DHT22;39234;53.158;6.322;2023-06-19T08:31:00;19.40;99.90
53152;DHT22;39234;53.158;6.322;2023-06-19T08:33:26;19.40;99.90
53152;DHT22;39234;53.158;6.322;2023-06-19T08:35:52;21.70;99.90
53152;DHT22;39234;53.158;6.322;2023-06-19T08:38:18;19.10;99.90
53152;DHT22;39234;53.158;6.322;2023-06-19T08:40:45;19.40;99.90
53152;DHT22;39234;53.158;6.322;2023-06-19T08:43:11;19.30;99.90
53152;DHT22;39234;53.158;6.322;2023-06-19T08:45:37;19.40;99.90
53152;DHT22;39234;53.158;6.322;2023-06-19T08:48:03;19.40;99.90
53152;DHT22;39234;53.158;6.322;2023-06-19T08:50:30;19.60;99.90
53152;DHT22;39234;53.158;6.322;2023-06-19T08:52:56;19.30;99.90
53152;DHT22;39234;53.158;6.322;2023-06-19T08:55:22;19.70;99.90
53152;DHT22;39234;53.158;6.322;2023-06-19T08:57:49;19.80;99.90
53152;DHT22;39234;53.158;6.322;2023-06-19T09:00:27;19.90;99.90
53152;DHT22;39234;53.158;6.322;2023-06-19T09:03:01;20.10;99.90
53152;DHT22;39234;53.158;6.322;2023-06-19T09:05:27;20.10;99.90
53152;DHT22;39234;53.158;6.322;2023-06-19T09:07:59;20.00;99.90
53152;DHT22;39234;53.158;6.322;2023-06-19T09:10:26;20.00;99.90
53152;DHT22;39234;53.158;6.322;2023-06-19T09:13:04;19.90;99.90
53152;DHT22;39234;53.158;6.322;2023-06-19T09:15:36;20.00;99.90
53152;DHT22;39234;53.158;6.322;2023-06-19T09:18:09;20.00;99.90
53152;DHT22;39234;53.158;6.322;2023-06-19T09:20:38;20.00;99.90
53152;DHT22;39234;53.158;6.322;2023-06-19T09:23:07;19.90;99.90
53152;DHT22;39234;53.158;6.322;2023-06-19T09:25:44;20.00;99.90
53152;DHT22;39234;53.158;6.322;2023-06-19T09:28:23;19.60;99.90
53152;DHT22;39234;53.158;6.322;2023-06-19T09:31:00;19.50;99.90
53152;DHT22;39234;53.158;6.322;2023-06-19T09:33:28;19.60;99.90
53152;DHT22;39234;53.158;6.322;2023-06-19T09:35:55;19.70;99.90
53152;DHT22;39234;53.158;6.322;2023-06-19T09:38:24;19.80;99.90
53152;DHT22;39234;53.158;6.322;2023-06-19T09:40:51;19.80;99.90
53152;DHT22;39234;53.158;6.322;2023-06-19T09:43:23;19.80;99.90
53152;DHT22;39234;53.158;6.322;2023-06-19T09:45:50;19.70;99.90
53152;DHT22;39234;53.158;6.322;2023-06-19T09:48:20;19.70;99.90
53152;DHT22;39234;53.158;6.322;2023-06-19T09:50:50;19.80;99.90
53152;DHT22;39234;53.158;6.322;2023-06-19T09:53:18;19.50;99.90
53152;DHT22;39234;53.158;6.322;2023-06-19T09:55:48;19.60;99.90
53152;DHT22;39234;53.158;6.322;2023-06-19T09:58:20;19.40;99.90
53152;DHT22;39234;53.158;6.322;2023-06-19T10:00:46;19.30;99.90
53152;DHT22;39234;53.158;6.322;2023-06-19T10:03:16;19.20;99.90
53152;DHT22;39234;53.158;6.322;2023-06-19T10:05:42;19.10;99.90
53152;DHT22;39234;53.158;6.322;2023-06-19T10:08:09;19.30;99.90
53152;DHT22;39234;53.158;6.322;2023-06-19T10:10:35;19.30;99.90
53152;DHT22;39234;53.158;6.322;2023-06-19T10:13:16;19.50;99.90
53152;DHT22;39234;53.158;6.322;2023-06-19T10:15:43;19.20;99.90
53152;DHT22;39234;53.158;6.322;2023-06-19T10:18:14;19.30;99.90
53152;DHT22;39234;53.158;6.322;2023-06-19T10:20:42;19.60;99.90
53152;DHT22;39234;53.158;6.322;2023-06-19T10:28:27;19.60;99.90
53152;DHT22;39234;53.158;6.322;2023-06-19T10:30:54;19.70;99.90
53152;DHT22;39234;53.158;6.322;2023-06-19T10:33:24;19.80;99.90
53152;DHT22;39234;53.158;6.322;2023-06-19T10:35:50;19.70;99.90
53152;DHT22;39234;53.158;6.322;2023-06-19T10:38:17;19.60;99.90
53152;DHT22;39234;53.158;6.322;2023-06-19T10:40:44;19.80;99.90
53152;DHT22;39234;53.158;6.322;2023-06-19T10:43:11;19.80;99.90
53152;DHT22;39234;53.158;6.322;2023-06-19T10:45:36;19.80;99.90
53152;DHT22;39234;53.158;6.322;2023-06-19T10:48:04;20.10;99.90
53152;DHT22;39234;53.158;6.322;2023-06-19T10:50:33;20.20;99.90
53152;DHT22;39234;53.158;6.322;2023-06-19T10:52:59;20.00;99.90
53152;DHT22;39234;53.158;6.322;2023-06-19T10:55:25;20.00;99.90
53152;DHT22;39234;53.158;6.322;2023-06-19T10:57:50;20.00;99.90
53152;DHT22;39234;53.158;6.322;2023-06-19T11:00:31;20.10;99.90
53152;DHT22;39234;53.158;6.322;2023-06-19T11:02:57;20.30;99.90
53152;DHT22;39234;53.158;6.322;2023-06-19T11:05:24;20.20;99.90
53152;DHT22;39234;53.158;6.322;2023-06-19T11:07:54;20.30;99.90
53152;DHT22;39234;53.158;6.322;2023-06-19T11:10:22;20.10;99.90
53152;DHT22;39234;53.158;6.322;2023-06-19T11:12:49;20.20;99.90
53152;DHT22;39234;53.158;6.322;2023-06-19T11:15:15;20.10;99.90
53152;DHT22;39234;53.158;6.322;2023-06-19T11:17:41;20.20;99.90
53152;DHT22;39234;53.158;6.322;2023-06-19T11:20:13;20.30;99.90
53152;DHT22;39234;53.158;6.322;2023-06-19T11:22:41;20.50;99.90
53152;DHT22;39234;53.158;6.322;2023-06-19T11:25:08;20.50;99.90
53152;DHT22;39234;53.158;6.322;2023-06-19T11:27:39;20.70;99.90
53152;DHT22;39234;53.158;6.322;2023-06-19T11:30:06;20.60;99.90
53152;DHT22;39234;53.158;6.322;2023-06-19T11:32:37;20.80;99.90
53152;DHT22;39234;53.158;6.322;2023-06-19T11:35:11;21.00;99.90
53152;DHT22;39234;53.158;6.322;2023-06-19T11:37:42;21.20;99.90
53152;DHT22;39234;53.158;6.322;2023-06-19T11:40:08;21.10;99.90
53152;DHT22;39234;53.158;6.322;2023-06-19T11:42:52;21.50;99.90
53152;DHT22;39234;53.158;6.322;2023-06-19T11:45:18;21.40;99.90
53152;DHT22;39234;53.158;6.322;2023-06-19T11:47:48;21.70;99.90
53152;DHT22;39234;53.158;6.322;2023-06-19T11:50:14;21.70;99.90
53152;DHT22;39234;53.158;6.322;2023-06-19T11:52:46;21.80;99.90
53152;DHT22;39234;53.158;6.322;2023-06-19T11:55:13;22.00;99.90
53152;DHT22;39234;53.158;6.322;2023-06-19T11:57:41;21.70;99.90
53152;DHT22;39234;53.158;6.322;2023-06-19T12:00:16;21.70;99.90
53152;DHT22;39234;53.158;6.322;2023-06-19T12:02:44;21.90;99.90
53152;DHT22;39234;53.158;6.322;2023-06-19T12:05:12;21.80;99.90
53152;DHT22;39234;53.158;6.322;2023-06-19T12:07:38;22.00;99.90
53152;DHT22;39234;53.158;6.322;2023-06-19T12:10:04;21.90;99.90
53152;DHT22;39234;53.158;6.322;2023-06-19T12:12:36;22.10;99.90
53152;DHT22;39234;53.158;6.322;2023-06-19T12:15:02;21.90;99.90
53152;DHT22;39234;53.158;6.322;2023-06-19T12:17:28;22.00;99.90
53152;DHT22;39234;53.158;6.322;2023-06-19T12:19:55;21.80;99.90
53152;DHT22;39234;53.158;6.322;2023-06-19T12:22:21;22.00;99.90
53152;DHT22;39234;53.158;6.322;2023-06-19T12:24:46;22.10;99.90
53152;DHT22;39234;53.158;6.322;2023-06-19T12:27:12;22.00;99.90
53152;DHT22;39234;53.158;6.322;2023-06-19T12:29:38;21.90;99.90
53152;DHT22;39234;53.158;6.322;2023-06-19T12:32:04;22.10;99.90
53152;DHT22;39234;53.158;6.322;2023-06-19T12:34:30;22.60;99.90
53152;DHT22;39234;53.158;6.322;2023-06-19T12:36:56;22.50;99.90
53152;DHT22;39234;53.158;6.322;2023-06-19T12:39:23;22.60;99.90
53152;DHT22;39234;53.158;6.322;2023-06-19T12:41:48;23.20;99.90
53152;DHT22;39234;53.158;6.322;2023-06-19T12:44:14;23.30;99.90
53152;DHT22;39234;53.158;6.322;2023-06-19T12:46:40;23.70;99.90
53152;DHT22;39234;53.158;6.322;2023-06-19T12:49:05;23.70;99.90
53152;DHT22;39234;53.158;6.322;2023-06-19T12:51:31;23.90;99.90
53152;DHT22;39234;53.158;6.322;2023-06-19T12:53:57;24.00;99.90
53152;DHT22;39234;53.158;6.322;2023-06-19T12:56:22;24.40;99.90
53152;DHT22;39234;53.158;6.322;2023-06-19T12:58:48;23.90;99.90
53152;DHT22;39234;53.158;6.322;2023-06-19T13:01:14;24.20;99.90
53152;DHT22;39234;53.158;6.322;2023-06-19T13:03:40;24.30;99.90
53152;DHT22;39234;53.158;6.322;2023-06-19T13:06:05;24.40;99.90
53152;DHT22;39234;53.158;6.322;2023-06-19T13:08:31;24.20;99.90
53152;DHT22;39234;53.158;6.322;2023-06-19T13:10:57;24.30;99.90
53152;DHT22;39234;53.158;6.322;2023-06-19T13:13:22;24.30;99.90
53152;DHT22;39234;53.158;6.322;2023-06-19T13:15:48;24.00;99.90
53152;DHT22;39234;53.158;6.322;2023-06-19T13:18:14;24.00;99.90
53152;DHT22;39234;53.158;6.322;2023-06-19T13:20:39;24.10;99.90
53152;DHT22;39234;53.158;6.322;2023-06-19T13:23:05;24.30;99.90
53152;DHT22;39234;53.158;6.322;2023-06-19T13:25:32;24.80;99.90
53152;DHT22;39234;53.158;6.322;2023-06-19T13:27:58;24.30;99.90
53152;DHT22;39234;53.158;6.322;2023-06-19T13:30:24;24.50;99.90
53152;DHT22;39234;53.158;6.322;2023-06-19T13:32:49;24.70;99.90
53152;DHT22;39234;53.158;6.322;2023-06-19T13:35:15;24.60;99.90
53152;DHT22;39234;53.158;6.322;2023-06-19T13:37:41;24.70;99.90
53152;DHT22;39234;53.158;6.322;2023-06-19T13:40:07;24.40;99.90
53152;DHT22;39234;53.158;6.322;2023-06-19T13:42:33;24.80;99.90
53152;DHT22;39234;53.158;6.322;2023-06-19T13:45:01;24.80;99.90
53152;DHT22;39234;53.158;6.322;2023-06-19T13:47:27;25.00;99.90
53152;DHT22;39234;53.158;6.322;2023-06-19T13:49:53;25.10;99.90
53152;DHT22;39234;53.158;6.322;2023-06-19T13:52:19;25.20;99.90
53152;DHT22;39234;53.158;6.322;2023-06-19T13:54:45;27.40;99.90
53152;DHT22;39234;53.158;6.322;2023-06-19T13:57:11;25.30;99.90
53152;DHT22;39234;53.158;6.322;2023-06-19T13:59:37;25.30;99.90
53152;DHT22;39234;53.158;6.322;2023-06-19T14:02:03;25.30;99.90
53152;DHT22;39234;53.158;6.322;2023-06-19T14:04:29;25.40;99.90
53152;DHT22;39234;53.158;6.322;2023-06-19T14:06:54;25.20;99.90
53152;DHT22;39234;53.158;6.322;2023-06-19T14:09:20;25.70;99.90
53152;DHT22;39234;53.158;6.322;2023-06-19T14:11:46;25.30;99.90
53152;DHT22;39234;53.158;6.322;2023-06-19T14:14:12;25.50;99.90
53152;DHT22;39234;53.158;6.322;2023-06-19T14:16:38;24.50;99.90
53152;DHT22;39234;53.158;6.322;2023-06-19T14:19:03;25.40;99.90
53152;DHT22;39234;53.158;6.322;2023-06-19T14:21:29;25.20;99.90
53152;DHT22;39234;53.158;6.322;2023-06-19T14:23:55;25.40;99.90
53152;DHT22;39234;53.158;6.322;2023-06-19T14:26:20;25.50;99.90
53152;DHT22;39234;53.158;6.322;2023-06-19T14:28:46;25.50;99.90
53152;DHT22;39234;53.158;6.322;2023-06-19T14:31:13;25.30;99.90
53152;DHT22;39234;53.158;6.322;2023-06-19T14:33:39;24.70;99.90
53152;DHT22;39234;53.158;6.322;2023-06-19T14:36:05;25.10;99.90
53152;DHT22;39234;53.158;6.322;2023-06-19T14:38:31;24.80;99.90
53152;DHT22;39234;53.158;6.322;2023-06-19T14:41:02;25.10;99.90
53152;DHT22;39234;53.158;6.322;2023-06-19T14:43:28;25.10;99.90
53152;DHT22;39234;53.158;6.322;2023-06-19T14:45:54;25.00;99.90
53152;DHT22;39234;53.158;6.322;2023-06-19T14:48:20;24.60;99.90
53152;DHT22;39234;53.158;6.322;2023-06-19T14:50:45;25.00;99.90
53152;DHT22;39234;53.158;6.322;2023-06-19T14:53:11;24.90;99.90
53152;DHT22;39234;53.158;6.322;2023-06-19T14:55:37;24.80;99.90
53152;DHT22;39234;53.158;6.322;2023-06-19T14:58:08;25.10;99.90
53152;DHT22;39234;53.158;6.322;2023-06-19T15:00:34;25.10;99.90
53152;DHT22;39234;53.158;6.322;2023-06-19T15:03:04;25.10;99.90
53152;DHT22;39234;53.158;6.322;2023-06-19T15:05:30;25.30;99.90
53152;DHT22;39234;53.158;6.322;2023-06-19T15:07:56;25.00;99.90
53152;DHT22;39234;53.158;6.322;2023-06-19T15:10:21;25.00;99.90
53152;DHT22;39234;53.158;6.322;2023-06-19T15:12:47;25.10;99.90
53152;DHT22;39234;53.158;6.322;2023-06-19T15:15:13;25.00;99.90
53152;DHT22;39234;53.158;6.322;2023-06-19T15:17:39;24.90;99.90
53152;DHT22;39234;53.158;6.322;2023-06-19T15:20:05;24.80;99.90
53152;DHT22;39234;53.158;6.322;2023-06-19T15:22:31;24.90;99.90
53152;DHT22;39234;53.158;6.322;2023-06-19T15:24:56;24.70;99.90
53152;DHT22;39234;53.158;6.322;2023-06-19T15:27:22;24.70;99.90
53152;DHT22;39234;53.158;6.322;2023-06-19T15:29:48;24.70;99.90
53152;DHT22;39234;53.158;6.322;2023-06-19T15:32:14;24.60;99.90
53152;DHT22;39234;53.158;6.322;2023-06-19T15:34:39;24.50;99.90
53152;DHT22;39234;53.158;6.322;2023-06-19T15:37:06;24.50;99.90
53152;DHT22;39234;53.158;6.322;2023-06-19T15:39:32;24.60;99.90